sensor_id;sensor_type;location;lat;lon;timestamp;temperature;humidity
3528;DHT22;1778;47.966;7.854;2023-12-20T00:00:51;8.10;99.90
3528;DHT22;1778;47.966;7.854;2023-12-20T00:01:53;8.10;99.90
3528;DHT22;1778;47.966;7.854;2023-12-20T00:02:55;8.10;99.90
3528;DHT22;1778;47.966;7.854;2023-12-20T00:03:56;8.10;99.90
3528;DHT22;1778;47.966;7.854;2023-12-20T00:04:58;8.10;99.90
3528;DHT22;1778;47.966;7.854;2023-12-20T00:06:00;8.20;99.90
3528;DHT22;1778;47.966;7.854;2023-12-20T00:07:02;8.20;99.90
3528;DHT22;1778;47.966;7.854;2023-12-20T00:08:04;8.20;99.90
3528;DHT22;1778;47.966;7.854;2023-12-20T00:09:08;8.20;99.90
3528;DHT22;1778;47.966;7.854;2023-12-20T00:10:09;8.20;99.90
3528;DHT22;1778;47.966;7.854;2023-12-20T00:11:11;8.20;99.90
3528;DHT22;1778;47.966;7.854;2023-12-20T00:12:12;8.20;99.90
3528;DHT22;1778;47.966;7.854;2023-12-20T00:13:14;8.20;99.90
3528;DHT22;1778;47.966;7.854;2023-12-20T00:14:18;8.10;99.90
3528;DHT22;1778;47.966;7.854;2023-12-20T00:15:19;8.10;99.90
3528;DHT22;1778;47.966;7.854;2023-12-20T00:16:23;8.20;99.90
3528;DHT22;1778;47.966;7.854;2023-12-20T00:17:25;8.20;99.90
3528;DHT22;1778;47.966;7.854;2023-12-20T00:18:26;8.20;99.90
3528;DHT22;1778;47.966;7.854;2023-12-20T00:19:28;8.20;99.90
3528;DHT22;1778;47.966;7.854;2023-12-20T00:20:30;8.20;99.90
3528;DHT22;1778;47.966;7.854;2023-12-20T00:21:31;8.20;99.90
3528;DHT22;1778;47.966;7.854;2023-12-20T00:22:33;8.20;99.90
3528;DHT22;1778;47.966;7.854;2023-12-20T00:23:34;8.20;99.90
3528;DHT22;1778;47.966;7.854;2023-12-20T00:24:36;8.20;99.90
3528;DHT22;1778;47.966;7.854;2023-12-20T00:25:37;8.20;99.90
3528;DHT22;1778;47.966;7.854;2023-12-20T00:26:38;8.20;99.90
3528;DHT22;1778;47.966;7.854;2023-12-20T00:27:40;8.30;99.90
3528;DHT22;1778;47.966;7.854;2023-12-20T00:28:42;8.30;99.90
3528;DHT22;1778;47.966;7.854;2023-12-20T00:29:44;8.30;99.90
3528;DHT22;1778;47.966;7.854;2023-12-20T00:30:49;8.30;99.90
3528;DHT22;1778;47.966;7.854;2023-12-20T00:31:50;8.30;99.90
3528;DHT22;1778;47.966;7.854;2023-12-20T00:32:52;8.20;99.90
3528;DHT22;1778;47.966;7.854;2023-12-20T00:33:53;8.20;99.90
3528;DHT22;1778;47.966;7.854;2023-12-20T00:34:56;8.20;99.90
3528;DHT22;1778;47.966;7.854;2023-12-20T00:35:57;8.20;99.90
3528;DHT22;1778;47.966;7.854;2023-12-20T00:36:58;8.20;99.90
3528;DHT22;1778;47.966;7.854;2023-12-20T00:38:00;8.30;99.90
3528;DHT22;1778;47.966;7.854;2023-12-20T00:39:02;8.30;99.90
3528;DHT22;1778;47.966;7.854;2023-12-20T00:40:04;8.30;99.90
3528;DHT22;1778;47.966;7.854;2023-12-20T00:41:05;8.20;99.90
3528;DHT22;1778;47.966;7.854;2023-12-20T00:42:07;8.20;99.90
3528;DHT22;1778;47.966;7.854;2023-12-20T00:43:09;8.20;99.90
3528;DHT22;1778;47.966;7.854;2023-12-20T00:44:10;8.30;99.90
3528;DHT22;1778;47.966;7.854;2023-12-20T00:45:12;8.20;99.90
3528;DHT22;1778;47.966;7.854;2023-12-20T00:46:13;8.20;99.90
3528;DHT22;1778;47.966;7.854;2023-12-20T00:47:15;8.20;99.90
3528;DHT22;1778;47.966;7.854;2023-12-20T00:48:16;8.10;99.90
3528;DHT22;1778;47.966;7.854;2023-12-20T00:49:18;8.10;99.90
3528;DHT22;1778;47.966;7.854;2023-12-20T00:50:19;8.10;99.90
3528;DHT22;1778;47.966;7.854;2023-12-20T00:51:23;8.10;99.90
3528;DHT22;1778;47.966;7.854;2023-12-20T00:52:24;8.10;99.90
3528;DHT22;1778;47.966;7.854;2023-12-20T00:53:26;8.10;99.90
3528;DHT22;1778;47.966;7.854;2023-12-20T00:54:27;8.10;99.90
3528;DHT22;1778;47.966;7.854;2023-12-20T00:55:29;8.00;99.90
3528;DHT22;1778;47.966;7.854;2023-12-20T00:56:31;7.90;99.90
3528;DHT22;1778;47.966;7.854;2023-12-20T00:57:32;7.80;99.90
3528;DHT22;1778;47.966;7.854;2023-12-20T00:58:34;7.80;99.90
3528;DHT22;1778;47.966;7.854;2023-12-20T00:59:35;7.80;99.90
3528;DHT22;1778;47.966;7.854;2023-12-20T01:00:37;7.80;99.90
3528;DHT22;1778;47.966;7.854;2023-12-20T01:01:41;7.70;99.90
3528;DHT22;1778;47.966;7.854;2023-12-20T01:02:43;7.70;99.90
3528;DHT22;1778;47.966;7.854;2023-12-20T01:03:45;7.70;99.90
3528;DHT22;1778;47.966;7.854;2023-12-20T01:04:47;7.70;99.90
3528;DHT22;1778;47.966;7.854;2023-12-20T01:05:48;7.60;99.90
3528;DHT22;1778;47.966;7.854;2023-12-20T01:06:50;7.60;99.90
3528;DHT22;1778;47.966;7.854;2023-12-20T01:07:51;7.60;99.90
3528;DHT22;1778;47.966;7.854;2023-12-20T01:08:53;7.50;99.90
3528;DHT22;1778;47.966;7.854;2023-12-20T01:09:55;7.50;99.90
3528;DHT22;1778;47.966;7.854;2023-12-20T01:10:56;7.50;99.90
3528;DHT22;1778;47.966;7.854;2023-12-20T01:11:58;7.50;99.90
3528;DHT22;1778;47.966;7.854;2023-12-20T01:12:59;7.40;99.90
3528;DHT22;1778;47.966;7.854;2023-12-20T01:14:01;7.40;99.90
3528;DHT22;1778;47.966;7.854;2023-12-20T01:15:03;7.40;99.90
3528;DHT22;1778;47.966;7.854;2023-12-20T01:16:05;7.40;99.90
3528;DHT22;1778;47.966;7.854;2023-12-20T01:17:07;7.40;99.90
3528;DHT22;1778;47.966;7.854;2023-12-20T01:18:08;7.30;99.90
3528;DHT22;1778;47.966;7.854;2023-12-20T01:19:10;7.30;99.90
3528;DHT22;1778;47.966;7.854;2023-12-20T01:20:11;7.30;99.90
3528;DHT22;1778;47.966;7.854;2023-12-20T01:21:13;7.20;99.90
3528;DHT22;1778;47.966;7.854;2023-12-20T01:22:14;7.20;99.90
3528;DHT22;1778;47.966;7.854;2023-12-20T01:23:16;7.20;99.90
3528;DHT22;1778;47.966;7.854;2023-12-20T01:24:18;7.20;99.90
3528;DHT22;1778;47.966;7.854;2023-12-20T01:25:20;7.20;99.90
3528;DHT22;1778;47.966;7.854;2023-12-20T01:26:21;7.20;99.90
3528;DHT22;1778;47.966;7.854;2023-12-20T01:27:23;7.20;99.90
3528;DHT22;1778;47.966;7.854;2023-12-20T01:28:26;7.20;99.90
3528;DHT22;1778;47.966;7.854;2023-12-20T01:29:28;7.20;99.90
3528;DHT22;1778;47.966;7.854;2023-12-20T01:30:29;7.20;99.90
3528;DHT22;1778;47.966;7.854;2023-12-20T01:31:30;7.20;99.90
3528;DHT22;1778;47.966;7.854;2023-12-20T01:32:32;7.20;99.90
3528;DHT22;1778;47.966;7.854;2023-12-20T01:33:34;7.20;99.90
3528;DHT22;1778;47.966;7.854;2023-12-20T01:34:35;7.20;99.90
3528;DHT22;1778;47.966;7.854;2023-12-20T01:35:37;7.10;99.90
3528;DHT22;1778;47.966;7.854;2023-12-20T01:36:39;7.20;99.90
3528;DHT22;1778;47.966;7.854;2023-12-20T01:37:41;7.20;99.90
3528;DHT22;1778;47.966;7.854;2023-12-20T01:38:43;7.20;99.90
3528;DHT22;1778;47.966;7.854;2023-12-20T01:39:45;7.10;99.90
3528;DHT22;1778;47.966;7.854;2023-12-20T01:40:46;7.10;99.90
3528;DHT22;1778;47.966;7.854;2023-12-20T01:41:48;7.10;99.90
3528;DHT22;1778;47.966;7.854;2023-12-20T01:43:11;7.10;99.90
3528;DHT22;1778;47.966;7.854;2023-12-20T01:44:14;7.10;99.90
3528;DHT22;1778;47.966;7.854;2023-12-20T01:45:15;7.10;99.90
3528;DHT22;1778;47.966;7.854;2023-12-20T01:46:17;7.00;99.90
3528;DHT22;1778;47.966;7.854;2023-12-20T01:47:20;7.00;99.90
3528;DHT22;1778;47.966;7.854;2023-12-20T01:48:24;7.00;99.90
3528;DHT22;1778;47.966;7.854;2023-12-20T01:49:26;7.00;99.90
3528;DHT22;1778;47.966;7.854;2023-12-20T01:50:31;7.00;99.90
3528;DHT22;1778;47.966;7.854;2023-12-20T01:51:34;7.00;99.90
3528;DHT22;1778;47.966;7.854;2023-12-20T01:52:36;7.10;99.90
3528;DHT22;1778;47.966;7.854;2023-12-20T01:53:39;7.00;99.90
3528;DHT22;1778;47.966;7.854;2023-12-20T01:54:42;7.00;99.90
3528;DHT22;1778;47.966;7.854;2023-12-20T01:55:44;7.10;99.90
3528;DHT22;1778;47.966;7.854;2023-12-20T01:56:46;7.10;99.90
3528;DHT22;1778;47.966;7.854;2023-12-20T01:57:48;7.00;99.90
3528;DHT22;1778;47.966;7.854;2023-12-20T01:58:50;7.00;99.90
3528;DHT22;1778;47.966;7.854;2023-12-20T01:59:52;7.00;99.90
3528;DHT22;1778;47.966;7.854;2023-12-20T02:00:54;7.00;99.90
3528;DHT22;1778;47.966;7.854;2023-12-20T02:01:56;7.00;99.90
3528;DHT22;1778;47.966;7.854;2023-12-20T02:03:01;7.00;99.90
3528;DHT22;1778;47.966;7.854;2023-12-20T02:04:04;7.00;99.90
3528;DHT22;1778;47.966;7.854;2023-12-20T02:05:07;7.00;99.90
3528;DHT22;1778;47.966;7.854;2023-12-20T02:06:09;7.00;99.90
3528;DHT22;1778;47.966;7.854;2023-12-20T02:07:11;7.00;99.90
3528;DHT22;1778;47.966;7.854;2023-12-20T02:08:13;7.00;99.90
3528;DHT22;1778;47.966;7.854;2023-12-20T02:09:15;7.00;99.90
3528;DHT22;1778;47.966;7.854;2023-12-20T02:10:17;7.00;99.90
3528;DHT22;1778;47.966;7.854;2023-12-20T02:11:19;6.90;99.90
3528;DHT22;1778;47.966;7.854;2023-12-20T02:12:21;6.90;99.90
3528;DHT22;1778;47.966;7.854;2023-12-20T02:13:23;6.90;99.90
3528;DHT22;1778;47.966;7.854;2023-12-20T02:14:24;6.90;99.90
3528;DHT22;1778;47.966;7.854;2023-12-20T02:15:26;6.90;99.90
3528;DHT22;1778;47.966;7.854;2023-12-20T02:16:27;6.90;99.90
3528;DHT22;1778;47.966;7.854;2023-12-20T02:17:30;6.90;99.90
3528;DHT22;1778;47.966;7.854;2023-12-20T02:18:32;6.90;99.90
3528;DHT22;1778;47.966;7.854;2023-12-20T02:19:33;6.90;99.90
3528;DHT22;1778;47.966;7.854;2023-12-20T02:20:35;6.90;99.90
3528;DHT22;1778;47.966;7.854;2023-12-20T02:21:36;6.90;99.90
3528;DHT22;1778;47.966;7.854;2023-12-20T02:22:38;6.90;99.90
3528;DHT22;1778;47.966;7.854;2023-12-20T02:23:39;7.00;99.90
3528;DHT22;1778;47.966;7.854;2023-12-20T02:24:41;7.00;99.90
3528;DHT22;1778;47.966;7.854;2023-12-20T02:25:43;7.10;99.90
3528;DHT22;1778;47.966;7.854;2023-12-20T02:26:44;7.00;99.90
3528;DHT22;1778;47.966;7.854;2023-12-20T02:27:48;7.00;99.90
3528;DHT22;1778;47.966;7.854;2023-12-20T02:28:50;6.90;99.90
3528;DHT22;1778;47.966;7.854;2023-12-20T02:29:52;6.90;99.90
3528;DHT22;1778;47.966;7.854;2023-12-20T02:30:53;6.90;99.90
3528;DHT22;1778;47.966;7.854;2023-12-20T02:31:55;6.90;99.90
3528;DHT22;1778;47.966;7.854;2023-12-20T02:32:56;7.00;99.90
3528;DHT22;1778;47.966;7.854;2023-12-20T02:33:59;7.00;99.90
3528;DHT22;1778;47.966;7.854;2023-12-20T02:35:00;7.00;99.90
3528;DHT22;1778;47.966;7.854;2023-12-20T02:36:02;7.00;99.90
3528;DHT22;1778;47.966;7.854;2023-12-20T02:37:04;7.00;99.90
3528;DHT22;1778;47.966;7.854;2023-12-20T02:38:05;7.00;99.90
3528;DHT22;1778;47.966;7.854;2023-12-20T02:39:12;7.00;99.90
3528;DHT22;1778;47.966;7.854;2023-12-20T02:40:17;7.00;99.90
3528;DHT22;1778;47.966;7.854;2023-12-20T02:41:19;7.00;99.90
3528;DHT22;1778;47.966;7.854;2023-12-20T02:42:20;7.00;99.90
3528;DHT22;1778;47.966;7.854;2023-12-20T02:43:22;7.00;99.90
3528;DHT22;1778;47.966;7.854;2023-12-20T02:44:23;7.00;99.90
3528;DHT22;1778;47.966;7.854;2023-12-20T02:45:26;7.00;99.90
3528;DHT22;1778;47.966;7.854;2023-12-20T02:46:28;7.00;99.90
3528;DHT22;1778;47.966;7.854;2023-12-20T02:47:29;7.00;99.90
3528;DHT22;1778;47.966;7.854;2023-12-20T02:48:31;6.90;99.90
3528;DHT22;1778;47.966;7.854;2023-12-20T02:49:32;6.90;99.90
3528;DHT22;1778;47.966;7.854;2023-12-20T02:50:34;6.90;99.90
3528;DHT22;1778;47.966;7.854;2023-12-20T02:51:36;6.90;99.90
3528;DHT22;1778;47.966;7.854;2023-12-20T02:52:40;7.00;99.90
3528;DHT22;1778;47.966;7.854;2023-12-20T02:53:41;7.00;99.90
3528;DHT22;1778;47.966;7.854;2023-12-20T02:54:43;7.00;99.90
3528;DHT22;1778;47.966;7.854;2023-12-20T02:55:44;7.00;99.90
3528;DHT22;1778;47.966;7.854;2023-12-20T02:56:45;7.00;99.90
3528;DHT22;1778;47.966;7.854;2023-12-20T02:57:47;7.00;99.90
3528;DHT22;1778;47.966;7.854;2023-12-20T02:58:49;6.90;99.90
3528;DHT22;1778;47.966;7.854;2023-12-20T02:59:51;6.90;99.90
3528;DHT22;1778;47.966;7.854;2023-12-20T03:00:52;6.90;99.90
3528;DHT22;1778;47.966;7.854;2023-12-20T03:01:54;6.90;99.90
3528;DHT22;1778;47.966;7.854;2023-12-20T03:02:55;7.00;99.90
3528;DHT22;1778;47.966;7.854;2023-12-20T03:03:57;6.90;99.90
3528;DHT22;1778;47.966;7.854;2023-12-20T03:04:58;6.90;99.90
3528;DHT22;1778;47.966;7.854;2023-12-20T03:06:03;7.00;99.90
3528;DHT22;1778;47.966;7.854;2023-12-20T03:07:04;6.90;99.90
3528;DHT22;1778;47.966;7.854;2023-12-20T03:08:06;6.90;99.90
3528;DHT22;1778;47.966;7.854;2023-12-20T03:09:07;6.90;99.90
3528;DHT22;1778;47.966;7.854;2023-12-20T03:10:09;6.90;99.90
3528;DHT22;1778;47.966;7.854;2023-12-20T03:11:21;7.00;99.90
3528;DHT22;1778;47.966;7.854;2023-12-20T03:12:22;6.90;99.90
3528;DHT22;1778;47.966;7.854;2023-12-20T03:13:24;6.90;99.90
3528;DHT22;1778;47.966;7.854;2023-12-20T03:14:25;6.90;99.90
3528;DHT22;1778;47.966;7.854;2023-12-20T03:15:26;6.90;99.90
3528;DHT22;1778;47.966;7.854;2023-12-20T03:16:28;6.80;99.90
3528;DHT22;1778;47.966;7.854;2023-12-20T03:17:29;6.80;99.90
3528;DHT22;1778;47.966;7.854;2023-12-20T03:18:31;6.90;99.90
3528;DHT22;1778;47.966;7.854;2023-12-20T03:19:33;6.80;99.90
3528;DHT22;1778;47.966;7.854;2023-12-20T03:20:34;6.80;99.90
3528;DHT22;1778;47.966;7.854;2023-12-20T03:21:36;6.80;99.90
3528;DHT22;1778;47.966;7.854;2023-12-20T03:22:37;6.80;99.90
3528;DHT22;1778;47.966;7.854;2023-12-20T03:23:39;6.80;99.90
3528;DHT22;1778;47.966;7.854;2023-12-20T03:24:41;6.80;99.90
3528;DHT22;1778;47.966;7.854;2023-12-20T03:25:42;6.80;99.90
3528;DHT22;1778;47.966;7.854;2023-12-20T03:26:44;6.80;99.90
3528;DHT22;1778;47.966;7.854;2023-12-20T03:27:45;6.80;99.90
3528;DHT22;1778;47.966;7.854;2023-12-20T03:28:47;6.80;99.90
3528;DHT22;1778;47.966;7.854;2023-12-20T03:29:50;6.80;99.90
3528;DHT22;1778;47.966;7.854;2023-12-20T03:30:51;6.80;99.90
3528;DHT22;1778;47.966;7.854;2023-12-20T03:31:53;6.80;99.90
3528;DHT22;1778;47.966;7.854;2023-12-20T03:32:54;6.70;99.90
3528;DHT22;1778;47.966;7.854;2023-12-20T03:33:56;6.80;99.90
3528;DHT22;1778;47.966;7.854;2023-12-20T03:34:58;6.70;99.90
3528;DHT22;1778;47.966;7.854;2023-12-20T03:35:59;6.70;99.90
3528;DHT22;1778;47.966;7.854;2023-12-20T03:37:01;6.70;99.90
3528;DHT22;1778;47.966;7.854;2023-12-20T03:38:02;6.80;99.90
3528;DHT22;1778;47.966;7.854;2023-12-20T03:39:04;6.80;99.90
3528;DHT22;1778;47.966;7.854;2023-12-20T03:40:06;6.70;99.90
3528;DHT22;1778;47.966;7.854;2023-12-20T03:41:08;6.80;99.90
3528;DHT22;1778;47.966;7.854;2023-12-20T03:42:10;6.70;99.90
3528;DHT22;1778;47.966;7.854;2023-12-20T03:43:11;6.70;99.90
3528;DHT22;1778;47.966;7.854;2023-12-20T03:44:13;6.70;99.90
3528;DHT22;1778;47.966;7.854;2023-12-20T03:45:14;6.70;99.90
3528;DHT22;1778;47.966;7.854;2023-12-20T03:46:16;6.70;99.90
3528;DHT22;1778;47.966;7.854;2023-12-20T03:47:17;6.70;99.90
3528;DHT22;1778;47.966;7.854;2023-12-20T03:48:20;6.80;99.90
3528;DHT22;1778;47.966;7.854;2023-12-20T03:49:21;6.80;99.90
3528;DHT22;1778;47.966;7.854;2023-12-20T03:50:23;6.80;99.90
3528;DHT22;1778;47.966;7.854;2023-12-20T03:51:25;6.70;99.90
3528;DHT22;1778;47.966;7.854;2023-12-20T03:52:26;6.70;99.90
3528;DHT22;1778;47.966;7.854;2023-12-20T03:53:28;6.70;99.90
3528;DHT22;1778;47.966;7.854;2023-12-20T03:54:29;6.70;99.90
3528;DHT22;1778;47.966;7.854;2023-12-20T03:55:31;6.70;99.90
3528;DHT22;1778;47.966;7.854;2023-12-20T03:56:32;6.70;99.90
3528;DHT22;1778;47.966;7.854;2023-12-20T03:57:34;6.70;99.90
3528;DHT22;1778;47.966;7.854;2023-12-20T03:58:35;6.60;99.90
3528;DHT22;1778;47.966;7.854;2023-12-20T03:59:37;6.60;99.90
3528;DHT22;1778;47.966;7.854;2023-12-20T04:00:39;6.60;99.90
3528;DHT22;1778;47.966;7.854;2023-12-20T04:01:43;6.70;99.90
3528;DHT22;1778;47.966;7.854;2023-12-20T04:02:46;6.60;99.90
3528;DHT22;1778;47.966;7.854;2023-12-20T04:03:48;6.60;99.90
3528;DHT22;1778;47.966;7.854;2023-12-20T04:04:49;6.60;99.90
3528;DHT22;1778;47.966;7.854;2023-12-20T04:05:51;6.60;99.90
3528;DHT22;1778;47.966;7.854;2023-12-20T04:06:52;6.60;99.90
3528;DHT22;1778;47.966;7.854;2023-12-20T04:07:54;6.60;99.90
3528;DHT22;1778;47.966;7.854;2023-12-20T04:08:56;6.60;99.90
3528;DHT22;1778;47.966;7.854;2023-12-20T04:09:57;6.60;99.90
3528;DHT22;1778;47.966;7.854;2023-12-20T04:10:59;6.60;99.90
3528;DHT22;1778;47.966;7.854;2023-12-20T04:12:00;6.60;99.90
3528;DHT22;1778;47.966;7.854;2023-12-20T04:13:02;6.60;99.90
3528;DHT22;1778;47.966;7.854;2023-12-20T04:14:04;6.60;99.90
3528;DHT22;1778;47.966;7.854;2023-12-20T04:15:08;6.60;99.90
3528;DHT22;1778;47.966;7.854;2023-12-20T04:16:11;6.60;99.90
3528;DHT22;1778;47.966;7.854;2023-12-20T04:17:13;6.60;99.90
3528;DHT22;1778;47.966;7.854;2023-12-20T04:18:17;6.60;99.90
3528;DHT22;1778;47.966;7.854;2023-12-20T04:19:18;6.60;99.90
3528;DHT22;1778;47.966;7.854;2023-12-20T04:20:20;6.60;99.90
3528;DHT22;1778;47.966;7.854;2023-12-20T04:21:21;6.60;99.90
3528;DHT22;1778;47.966;7.854;2023-12-20T04:22:23;6.60;99.90
3528;DHT22;1778;47.966;7.854;2023-12-20T04:23:28;6.60;99.90
3528;DHT22;1778;47.966;7.854;2023-12-20T04:24:31;6.60;99.90
3528;DHT22;1778;47.966;7.854;2023-12-20T04:25:33;6.60;99.90
3528;DHT22;1778;47.966;7.854;2023-12-20T04:26:37;6.60;99.90
3528;DHT22;1778;47.966;7.854;2023-12-20T04:27:38;6.60;99.90
3528;DHT22;1778;47.966;7.854;2023-12-20T04:28:39;6.50;99.90
3528;DHT22;1778;47.966;7.854;2023-12-20T04:29:41;6.50;99.90
3528;DHT22;1778;47.966;7.854;2023-12-20T04:30:42;6.50;99.90
3528;DHT22;1778;47.966;7.854;2023-12-20T04:31:44;6.60;99.90
3528;DHT22;1778;47.966;7.854;2023-12-20T04:32:46;6.60;99.90
3528;DHT22;1778;47.966;7.854;2023-12-20T04:33:50;6.60;99.90
3528;DHT22;1778;47.966;7.854;2023-12-20T04:34:51;6.60;99.90
3528;DHT22;1778;47.966;7.854;2023-12-20T04:35:53;6.60;99.90
3528;DHT22;1778;47.966;7.854;2023-12-20T04:36:54;6.70;99.90
3528;DHT22;1778;47.966;7.854;2023-12-20T04:37:55;6.60;99.90
3528;DHT22;1778;47.966;7.854;2023-12-20T04:38:57;6.60;99.90
3528;DHT22;1778;47.966;7.854;2023-12-20T04:39:58;6.60;99.90
3528;DHT22;1778;47.966;7.854;2023-12-20T04:41:00;6.60;99.90
3528;DHT22;1778;47.966;7.854;2023-12-20T04:42:01;6.60;99.90
3528;DHT22;1778;47.966;7.854;2023-12-20T04:43:03;6.50;99.90
3528;DHT22;1778;47.966;7.854;2023-12-20T04:44:05;6.50;99.90
3528;DHT22;1778;47.966;7.854;2023-12-20T04:45:07;6.60;99.90
3528;DHT22;1778;47.966;7.854;2023-12-20T04:46:09;6.60;99.90
3528;DHT22;1778;47.966;7.854;2023-12-20T04:47:10;6.60;99.90
3528;DHT22;1778;47.966;7.854;2023-12-20T04:48:12;6.60;99.90
3528;DHT22;1778;47.966;7.854;2023-12-20T04:49:13;6.60;99.90
3528;DHT22;1778;47.966;7.854;2023-12-20T04:50:15;6.60;99.90
3528;DHT22;1778;47.966;7.854;2023-12-20T04:51:17;6.60;99.90
3528;DHT22;1778;47.966;7.854;2023-12-20T04:52:18;6.60;99.90
3528;DHT22;1778;47.966;7.854;2023-12-20T04:53:20;6.60;99.90
3528;DHT22;1778;47.966;7.854;2023-12-20T04:54:21;6.60;99.90
3528;DHT22;1778;47.966;7.854;2023-12-20T04:55:23;6.60;99.90
3528;DHT22;1778;47.966;7.854;2023-12-20T04:56:25;6.60;99.90
3528;DHT22;1778;47.966;7.854;2023-12-20T04:57:26;6.60;99.90
3528;DHT22;1778;47.966;7.854;2023-12-20T04:58:28;6.50;99.90
3528;DHT22;1778;47.966;7.854;2023-12-20T04:59:30;6.60;99.90
3528;DHT22;1778;47.966;7.854;2023-12-20T05:00:31;6.50;99.90
3528;DHT22;1778;47.966;7.854;2023-12-20T05:01:33;6.50;99.90
3528;DHT22;1778;47.966;7.854;2023-12-20T05:02:35;6.50;99.90
3528;DHT22;1778;47.966;7.854;2023-12-20T05:03:37;6.60;99.90
3528;DHT22;1778;47.966;7.854;2023-12-20T05:04:38;6.50;99.90
3528;DHT22;1778;47.966;7.854;2023-12-20T05:05:40;6.50;99.90
3528;DHT22;1778;47.966;7.854;2023-12-20T05:06:41;6.60;99.90
3528;DHT22;1778;47.966;7.854;2023-12-20T05:07:43;6.60;99.90
3528;DHT22;1778;47.966;7.854;2023-12-20T05:08:45;6.50;99.90
3528;DHT22;1778;47.966;7.854;2023-12-20T05:09:47;6.60;99.90
3528;DHT22;1778;47.966;7.854;2023-12-20T05:10:48;6.60;99.90
3528;DHT22;1778;47.966;7.854;2023-12-20T05:11:50;6.60;99.90
3528;DHT22;1778;47.966;7.854;2023-12-20T05:12:51;6.70;99.90
3528;DHT22;1778;47.966;7.854;2023-12-20T05:13:52;6.70;99.90
3528;DHT22;1778;47.966;7.854;2023-12-20T05:14:54;6.60;99.90
3528;DHT22;1778;47.966;7.854;2023-12-20T05:15:55;6.60;99.90
3528;DHT22;1778;47.966;7.854;2023-12-20T05:16:57;6.60;99.90
3528;DHT22;1778;47.966;7.854;2023-12-20T05:17:58;6.50;99.90
3528;DHT22;1778;47.966;7.854;2023-12-20T05:18:59;6.60;99.90
3528;DHT22;1778;47.966;7.854;2023-12-20T05:20:03;6.60;99.90
3528;DHT22;1778;47.966;7.854;2023-12-20T05:21:05;6.60;99.90
3528;DHT22;1778;47.966;7.854;2023-12-20T05:22:06;6.60;99.90
3528;DHT22;1778;47.966;7.854;2023-12-20T05:23:08;6.60;99.90
3528;DHT22;1778;47.966;7.854;2023-12-20T05:24:10;6.50;99.90
3528;DHT22;1778;47.966;7.854;2023-12-20T05:25:11;6.50;99.90
3528;DHT22;1778;47.966;7.854;2023-12-20T05:26:13;6.50;99.90
3528;DHT22;1778;47.966;7.854;2023-12-20T05:27:14;6.50;99.90
3528;DHT22;1778;47.966;7.854;2023-12-20T05:28:16;6.60;99.90
3528;DHT22;1778;47.966;7.854;2023-12-20T05:29:18;6.60;99.90
3528;DHT22;1778;47.966;7.854;2023-12-20T05:30:19;6.50;99.90
3528;DHT22;1778;47.966;7.854;2023-12-20T05:31:21;6.50;99.90
3528;DHT22;1778;47.966;7.854;2023-12-20T05:32:23;6.50;99.90
3528;DHT22;1778;47.966;7.854;2023-12-20T05:33:24;6.50;99.90
3528;DHT22;1778;47.966;7.854;2023-12-20T05:34:26;6.50;99.90
3528;DHT22;1778;47.966;7.854;2023-12-20T05:35:28;6.50;99.90
3528;DHT22;1778;47.966;7.854;2023-12-20T05:36:30;6.50;99.90
3528;DHT22;1778;47.966;7.854;2023-12-20T05:37:31;6.50;99.90
3528;DHT22;1778;47.966;7.854;2023-12-20T05:38:32;6.50;99.90
3528;DHT22;1778;47.966;7.854;2023-12-20T05:39:34;6.50;99.90
3528;DHT22;1778;47.966;7.854;2023-12-20T05:40:35;6.60;99.90
3528;DHT22;1778;47.966;7.854;2023-12-20T05:41:36;6.60;99.90
3528;DHT22;1778;47.966;7.854;2023-12-20T05:42:38;6.60;99.90
3528;DHT22;1778;47.966;7.854;2023-12-20T05:43:39;6.50;99.90
3528;DHT22;1778;47.966;7.854;2023-12-20T05:44:41;6.50;99.90
3528;DHT22;1778;47.966;7.854;2023-12-20T05:45:42;6.50;99.90
3528;DHT22;1778;47.966;7.854;2023-12-20T05:46:44;6.60;99.90
3528;DHT22;1778;47.966;7.854;2023-12-20T05:47:45;6.60;99.90
3528;DHT22;1778;47.966;7.854;2023-12-20T05:48:47;6.60;99.90
3528;DHT22;1778;47.966;7.854;2023-12-20T05:49:49;6.60;99.90
3528;DHT22;1778;47.966;7.854;2023-12-20T05:50:51;6.50;99.90
3528;DHT22;1778;47.966;7.854;2023-12-20T05:51:52;6.50;99.90
3528;DHT22;1778;47.966;7.854;2023-12-20T05:52:54;6.50;99.90
3528;DHT22;1778;47.966;7.854;2023-12-20T05:53:55;6.50;99.90
3528;DHT22;1778;47.966;7.854;2023-12-20T05:54:57;6.50;99.90
3528;DHT22;1778;47.966;7.854;2023-12-20T05:56:03;6.50;99.90
3528;DHT22;1778;47.966;7.854;2023-12-20T05:57:05;6.50;99.90
3528;DHT22;1778;47.966;7.854;2023-12-20T05:58:06;6.50;99.90
3528;DHT22;1778;47.966;7.854;2023-12-20T05:59:07;6.50;99.90
3528;DHT22;1778;47.966;7.854;2023-12-20T06:00:09;6.50;99.90
3528;DHT22;1778;47.966;7.854;2023-12-20T06:01:14;6.60;99.90
3528;DHT22;1778;47.966;7.854;2023-12-20T06:02:18;6.50;99.90
3528;DHT22;1778;47.966;7.854;2023-12-20T06:03:19;6.50;99.90
3528;DHT22;1778;47.966;7.854;2023-12-20T06:04:21;6.50;99.90
3528;DHT22;1778;47.966;7.854;2023-12-20T06:05:24;6.60;99.90
3528;DHT22;1778;47.966;7.854;2023-12-20T06:06:26;6.60;99.90
3528;DHT22;1778;47.966;7.854;2023-12-20T06:07:27;6.50;99.90
3528;DHT22;1778;47.966;7.854;2023-12-20T06:08:29;6.50;99.90
3528;DHT22;1778;47.966;7.854;2023-12-20T06:09:30;6.50;99.90
3528;DHT22;1778;47.966;7.854;2023-12-20T06:10:32;6.50;99.90
3528;DHT22;1778;47.966;7.854;2023-12-20T06:11:34;6.50;99.90
3528;DHT22;1778;47.966;7.854;2023-12-20T06:12:35;6.50;99.90
3528;DHT22;1778;47.966;7.854;2023-12-20T06:13:37;6.50;99.90
3528;DHT22;1778;47.966;7.854;2023-12-20T06:14:38;6.60;99.90
3528;DHT22;1778;47.966;7.854;2023-12-20T06:15:40;6.50;99.90
3528;DHT22;1778;47.966;7.854;2023-12-20T06:16:42;6.50;99.90
3528;DHT22;1778;47.966;7.854;2023-12-20T06:17:44;6.50;99.90
3528;DHT22;1778;47.966;7.854;2023-12-20T06:18:45;6.50;99.90
3528;DHT22;1778;47.966;7.854;2023-12-20T06:19:48;6.50;99.90
3528;DHT22;1778;47.966;7.854;2023-12-20T06:20:50;6.50;99.90
3528;DHT22;1778;47.966;7.854;2023-12-20T06:21:51;6.50;99.90
3528;DHT22;1778;47.966;7.854;2023-12-20T06:22:53;6.50;99.90
3528;DHT22;1778;47.966;7.854;2023-12-20T06:23:54;6.50;99.90
3528;DHT22;1778;47.966;7.854;2023-12-20T06:24:56;6.60;99.90
3528;DHT22;1778;47.966;7.854;2023-12-20T06:25:58;6.60;99.90
3528;DHT22;1778;47.966;7.854;2023-12-20T06:26:59;6.50;99.90
3528;DHT22;1778;47.966;7.854;2023-12-20T06:28:02;6.50;99.90
3528;DHT22;1778;47.966;7.854;2023-12-20T06:29:03;6.50;99.90
3528;DHT22;1778;47.966;7.854;2023-12-20T06:30:05;6.50;99.90
3528;DHT22;1778;47.966;7.854;2023-12-20T06:31:07;6.50;99.90
3528;DHT22;1778;47.966;7.854;2023-12-20T06:32:09;6.50;99.90
3528;DHT22;1778;47.966;7.854;2023-12-20T06:33:11;6.60;99.90
3528;DHT22;1778;47.966;7.854;2023-12-20T06:34:12;6.60;99.90
3528;DHT22;1778;47.966;7.854;2023-12-20T06:35:14;6.60;99.90
3528;DHT22;1778;47.966;7.854;2023-12-20T06:36:16;6.70;99.90
3528;DHT22;1778;47.966;7.854;2023-12-20T06:37:17;6.70;99.90
3528;DHT22;1778;47.966;7.854;2023-12-20T06:38:19;6.60;99.90
3528;DHT22;1778;47.966;7.854;2023-12-20T06:39:20;6.60;99.90
3528;DHT22;1778;47.966;7.854;2023-12-20T06:40:22;6.50;99.90
3528;DHT22;1778;47.966;7.854;2023-12-20T06:41:23;6.50;99.90
3528;DHT22;1778;47.966;7.854;2023-12-20T06:42:25;6.50;99.90
3528;DHT22;1778;47.966;7.854;2023-12-20T06:43:27;6.60;99.90
3528;DHT22;1778;47.966;7.854;2023-12-20T06:44:46;6.50;99.90
3528;DHT22;1778;47.966;7.854;2023-12-20T06:45:48;6.50;99.90
3528;DHT22;1778;47.966;7.854;2023-12-20T06:46:49;6.50;99.90
3528;DHT22;1778;47.966;7.854;2023-12-20T06:47:51;6.50;99.90
3528;DHT22;1778;47.966;7.854;2023-12-20T06:48:52;6.50;99.90
3528;DHT22;1778;47.966;7.854;2023-12-20T06:49:53;6.40;99.90
3528;DHT22;1778;47.966;7.854;2023-12-20T06:50:55;6.50;99.90